createdAt,value
2023-05-16T00:01:10.218Z,15.20
2023-05-16T00:04:13.648Z,15.10
2023-05-16T00:07:16.885Z,15.10
2023-05-16T00:10:20.230Z,15.10
2023-05-16T00:13:26.309Z,15.00
2023-05-16T00:16:30.948Z,15.10
2023-05-16T00:19:34.388Z,15.00
2023-05-16T00:22:37.562Z,15.00
2023-05-16T00:25:40.776Z,15.10
2023-05-16T00:28:44.280Z,15.10
2023-05-16T00:31:48.824Z,15.10
2023-05-16T00:34:52.211Z,14.90
2023-05-16T00:37:55.970Z,14.90
2023-05-16T00:40:59.054Z,14.90
2023-05-16T00:44:02.127Z,14.90
2023-05-16T00:47:07.132Z,14.80
2023-05-16T00:50:11.394Z,14.90
2023-05-16T00:53:14.622Z,14.80
2023-05-16T00:56:18.786Z,14.80
2023-05-16T00:59:21.949Z,14.70
2023-05-16T01:02:29.097Z,14.60
2023-05-16T01:05:32.639Z,14.60
2023-05-16T01:08:35.741Z,14.60
2023-05-16T01:11:44.686Z,14.60
2023-05-16T01:14:55.415Z,14.60
2023-05-16T01:18:21.369Z,14.60
2023-05-16T01:21:40.248Z,14.60
2023-05-16T01:24:58.451Z,14.60
2023-05-16T01:28:03.818Z,14.60
2023-05-16T01:31:07.514Z,14.60
2023-05-16T01:34:10.696Z,14.60
2023-05-16T01:37:20.470Z,14.60
2023-05-16T01:40:44.125Z,14.60
2023-05-16T01:43:53.505Z,14.60
2023-05-16T01:47:01.132Z,14.60
2023-05-16T01:50:09.640Z,14.50
2023-05-16T01:53:18.178Z,14.50
2023-05-16T01:56:22.956Z,14.50
2023-05-16T01:59:28.267Z,14.50
2023-05-16T02:02:32.595Z,14.40
2023-05-16T02:05:35.959Z,14.40
2023-05-16T02:08:39.110Z,14.40
2023-05-16T02:11:42.157Z,14.40
2023-05-16T02:14:46.693Z,14.40
2023-05-16T02:17:49.917Z,14.40
2023-05-16T02:20:53.397Z,14.40
2023-05-16T02:23:56.485Z,14.30
2023-05-16T02:26:59.622Z,14.30
2023-05-16T02:30:05.611Z,14.30
2023-05-16T02:33:08.744Z,14.30
2023-05-16T02:36:12.262Z,14.30
2023-05-16T02:39:15.571Z,14.30
2023-05-16T02:42:18.704Z,14.30
2023-05-16T02:45:23.212Z,14.30
2023-05-16T02:48:26.356Z,14.40
2023-05-16T02:51:30.046Z,14.40
2023-05-16T02:54:33.119Z,14.40
2023-05-16T02:57:36.189Z,14.40
2023-05-16T03:00:40.843Z,14.40
2023-05-16T03:03:44.134Z,14.40
2023-05-16T03:06:47.473Z,14.50
2023-05-16T03:09:50.635Z,14.50
2023-05-16T03:12:53.824Z,14.50
2023-05-16T03:15:58.376Z,14.50
2023-05-16T03:19:01.698Z,14.50
2023-05-16T03:22:05.284Z,14.50
2023-05-16T03:25:08.999Z,14.50
2023-05-16T03:28:14.050Z,14.40
2023-05-16T03:31:19.807Z,14.40
2023-05-16T03:34:22.923Z,14.50
2023-05-16T03:37:26.544Z,14.40
2023-05-16T03:40:30.029Z,14.40
2023-05-16T03:43:33.207Z,14.40
2023-05-16T03:46:38.121Z,14.40
2023-05-16T03:49:41.714Z,14.40
2023-05-16T03:52:45.102Z,14.40
2023-05-16T03:55:48.853Z,14.40
2023-05-16T03:58:52.138Z,14.50
2023-05-16T04:01:56.718Z,14.40
2023-05-16T04:04:59.860Z,14.40
2023-05-16T04:08:03.034Z,14.40
2023-05-16T04:11:06.169Z,14.40
2023-05-16T04:14:09.287Z,14.50
2023-05-16T04:17:14.223Z,14.50
2023-05-16T04:20:18.085Z,14.50
2023-05-16T04:23:21.241Z,14.40
2023-05-16T04:26:24.894Z,14.40
2023-05-16T04:29:28.049Z,14.30
2023-05-16T04:32:35.391Z,14.20
2023-05-16T04:35:38.751Z,14.10
2023-05-16T04:38:41.910Z,14.20
2023-05-16T04:41:45.443Z,14.20
2023-05-16T04:44:48.983Z,14.30
2023-05-16T04:47:53.562Z,14.30
2023-05-16T04:50:57.300Z,14.40
2023-05-16T04:54:00.428Z,14.40
2023-05-16T04:57:03.527Z,14.40
2023-05-16T05:00:10.453Z,14.50
2023-05-16T05:03:14.944Z,14.50
2023-05-16T05:06:18.146Z,14.60
2023-05-16T05:09:21.400Z,14.60
2023-05-16T05:12:25.282Z,14.50
2023-05-16T05:15:28.719Z,14.50
2023-05-16T05:18:33.605Z,14.50
2023-05-16T05:21:37.772Z,14.50
2023-05-16T05:24:41.045Z,14.50
2023-05-16T05:27:44.185Z,14.50
2023-05-16T05:30:48.484Z,14.50
2023-05-16T05:33:52.932Z,14.50
2023-05-16T05:36:57.107Z,14.50
2023-05-16T05:40:00.538Z,14.50
2023-05-16T05:43:03.700Z,14.50
2023-05-16T05:46:07.755Z,14.50
2023-05-16T05:49:12.536Z,14.60
2023-05-16T05:52:15.644Z,14.60
2023-05-16T05:55:18.843Z,14.60
2023-05-16T05:58:23.243Z,14.60
2023-05-16T06:01:26.562Z,14.70
2023-05-16T06:04:31.104Z,14.70
2023-05-16T06:07:34.285Z,14.70
2023-05-16T06:10:37.415Z,14.70
2023-05-16T06:13:40.650Z,14.60
2023-05-16T06:16:43.842Z,14.60
2023-05-16T06:19:48.416Z,14.60
2023-05-16T06:22:51.520Z,14.50
2023-05-16T06:25:54.665Z,14.60
2023-05-16T06:28:57.814Z,14.50
2023-05-16T06:32:01.025Z,14.50
2023-05-16T06:35:06.445Z,14.50
2023-05-16T06:38:09.599Z,14.40
2023-05-16T06:41:12.732Z,14.10
2023-05-16T06:44:15.914Z,13.90
2023-05-16T06:47:19.054Z,13.70
2023-05-16T06:50:23.706Z,13.60
2023-05-16T06:53:27.396Z,13.70
2023-05-16T06:56:31.620Z,13.60
2023-05-16T06:59:35.132Z,13.50
2023-05-16T07:02:38.373Z,13.50
2023-05-16T07:05:42.993Z,13.70
2023-05-16T07:08:46.277Z,13.80
2023-05-16T07:11:49.571Z,13.90
2023-05-16T07:14:52.734Z,14.00
2023-05-16T07:17:55.945Z,14.00
2023-05-16T07:21:00.622Z,14.10
2023-05-16T07:24:03.862Z,14.20
2023-05-16T07:27:07.169Z,14.20
2023-05-16T07:30:12.556Z,14.40
2023-05-16T07:33:16.673Z,14.40
2023-05-16T07:36:21.338Z,14.50
2023-05-16T07:39:24.524Z,14.70
2023-05-16T07:42:27.719Z,14.70
2023-05-16T07:45:31.079Z,14.70
2023-05-16T07:48:34.410Z,14.70
2023-05-16T07:51:39.013Z,14.70
2023-05-16T07:54:42.180Z,14.60
2023-05-16T07:57:45.521Z,14.70
2023-05-16T08:00:48.751Z,14.70
2023-05-16T08:03:52.648Z,14.70
2023-05-16T08:06:57.155Z,14.80
2023-05-16T08:10:00.325Z,14.90
2023-05-16T08:13:04.121Z,14.90
2023-05-16T08:16:07.622Z,14.90
2023-05-16T08:19:10.833Z,14.80
2023-05-16T08:22:15.473Z,14.70
2023-05-16T08:25:18.638Z,14.70
2023-05-16T08:28:21.826Z,14.70
2023-05-16T08:31:24.994Z,14.70
2023-05-16T08:34:28.135Z,14.70
2023-05-16T08:37:33.891Z,14.70
2023-05-16T08:40:37.290Z,14.80
2023-05-16T08:43:42.822Z,14.70
2023-05-16T08:46:47.674Z,14.80
2023-05-16T08:49:53.010Z,14.80
2023-05-16T08:52:57.941Z,14.70
2023-05-16T08:56:02.066Z,14.80
2023-05-16T08:59:06.298Z,15.20
2023-05-16T09:02:10.160Z,16.10
2023-05-16T09:05:14.612Z,17.20
2023-05-16T09:08:20.462Z,17.60
2023-05-16T09:11:23.679Z,17.80
2023-05-16T09:14:26.884Z,18.30
2023-05-16T09:17:39.910Z,18.50
2023-05-16T09:20:47.897Z,18.60
2023-05-16T09:23:52.642Z,18.50
2023-05-16T09:26:55.997Z,18.60
2023-05-16T09:30:00.190Z,18.50
2023-05-16T09:33:03.705Z,18.20
2023-05-16T09:36:07.784Z,18.00
2023-05-16T09:39:16.693Z,17.70
2023-05-16T09:42:21.658Z,17.50
2023-05-16T09:45:24.968Z,17.20
2023-05-16T09:48:28.903Z,17.00
2023-05-16T09:51:32.419Z,16.80
2023-05-16T09:54:37.004Z,16.70
2023-05-16T09:57:40.903Z,16.50
2023-05-16T10:00:44.233Z,16.30
2023-05-16T10:03:47.696Z,16.10
2023-05-16T10:06:52.844Z,15.90
2023-05-16T10:09:58.291Z,15.80
2023-05-16T10:13:08.120Z,15.80
2023-05-16T10:16:13.224Z,15.80
2023-05-16T10:19:17.762Z,15.90
2023-05-16T10:22:23.125Z,15.90
2023-05-16T10:25:33.322Z,15.80
2023-05-16T10:28:37.308Z,15.60
2023-05-16T10:31:41.354Z,15.50
2023-05-16T10:34:46.715Z,15.40
2023-05-16T10:37:51.026Z,15.30
2023-05-16T10:40:56.245Z,15.20
2023-05-16T10:44:02.502Z,15.20
2023-05-16T10:47:06.045Z,15.20
2023-05-16T10:50:09.837Z,15.20
2023-05-16T10:53:21.015Z,15.30
2023-05-16T10:56:28.745Z,15.50
2023-05-16T10:59:41.959Z,15.60
2023-05-16T11:02:45.334Z,15.60
2023-05-16T11:05:54.272Z,15.80
2023-05-16T11:09:06.759Z,16.00
2023-05-16T11:12:11.387Z,16.10
2023-05-16T11:15:23.243Z,16.10
2023-05-16T11:18:26.363Z,16.30
2023-05-16T11:22:06.098Z,16.70
2023-05-16T11:25:10.940Z,16.90
2023-05-16T11:28:15.495Z,16.70
2023-05-16T11:31:19.881Z,16.40
2023-05-16T11:34:23.123Z,16.20
2023-05-16T11:37:26.474Z,16.10
2023-05-16T11:40:29.643Z,15.90
2023-05-16T11:43:41.788Z,15.80
2023-05-16T11:46:45.986Z,15.60
2023-05-16T11:49:49.673Z,15.50
2023-05-16T11:52:56.254Z,15.40
2023-05-16T11:56:02.261Z,15.40
2023-05-16T11:59:08.402Z,15.60
2023-05-16T12:02:11.767Z,15.80
2023-05-16T12:05:17.285Z,15.90
2023-05-16T12:08:21.876Z,16.00
2023-05-16T12:11:25.495Z,16.00
2023-05-16T12:14:30.160Z,15.90
2023-05-16T12:17:33.543Z,15.80
2023-05-16T12:20:37.329Z,15.70
2023-05-16T12:23:40.487Z,15.60
2023-05-16T12:26:44.753Z,15.40
2023-05-16T12:29:51.160Z,15.40
2023-05-16T12:32:56.645Z,15.30
2023-05-16T12:36:01.805Z,15.40
2023-05-16T12:39:05.402Z,15.30
2023-05-16T12:42:09.741Z,15.40
2023-05-16T12:45:18.221Z,15.40
2023-05-16T12:48:21.698Z,15.50
2023-05-16T12:51:24.877Z,15.60
2023-05-16T12:54:28.044Z,15.70
2023-05-16T12:57:33.754Z,15.80
2023-05-16T13:00:39.332Z,16.10
2023-05-16T13:03:42.534Z,16.40
2023-05-16T13:06:58.279Z,16.70
2023-05-16T13:10:02.102Z,16.80
2023-05-16T13:13:05.298Z,16.90
2023-05-16T13:16:10.465Z,17.00
2023-05-16T13:19:13.794Z,17.10
2023-05-16T13:22:17.067Z,17.10
2023-05-16T13:25:21.595Z,17.00
2023-05-16T13:28:24.775Z,16.80
2023-05-16T13:31:29.410Z,16.60
2023-05-16T13:34:32.658Z,16.40
2023-05-16T13:37:36.006Z,16.20
2023-05-16T13:40:39.176Z,16.10
2023-05-16T13:43:42.321Z,16.00
2023-05-16T13:46:47.030Z,16.00
2023-05-16T13:49:50.778Z,15.90
2023-05-16T13:52:54.059Z,15.90
2023-05-16T13:55:57.267Z,15.80
2023-05-16T13:59:06.881Z,15.80
2023-05-16T14:02:12.130Z,15.70
2023-05-16T14:05:15.321Z,15.60
2023-05-16T14:08:18.543Z,15.50
2023-05-16T14:11:28.446Z,15.50
2023-05-16T14:14:32.456Z,15.50
2023-05-16T14:17:37.013Z,15.50
2023-05-16T14:20:40.234Z,15.40
2023-05-16T14:23:43.424Z,15.30
2023-05-16T14:26:46.630Z,15.30
2023-05-16T14:29:49.792Z,15.40
2023-05-16T14:32:54.336Z,15.40
2023-05-16T14:35:57.527Z,15.30
2023-05-16T14:39:00.793Z,15.30
2023-05-16T14:42:06.197Z,15.10
2023-05-16T14:45:13.868Z,15.00
2023-05-16T14:48:21.484Z,15.00
2023-05-16T14:51:24.662Z,14.80
2023-05-16T14:54:28.010Z,14.80
2023-05-16T14:57:31.372Z,14.80
2023-05-16T15:00:34.692Z,14.70
2023-05-16T15:06:45.615Z,14.70
2023-05-16T15:09:51.009Z,14.70
2023-05-16T15:12:54.341Z,14.60
2023-05-16T15:15:57.983Z,14.50
2023-05-16T15:19:02.556Z,14.50
2023-05-16T15:22:07.876Z,14.50
2023-05-16T15:25:12.054Z,14.40
2023-05-16T15:28:15.210Z,14.40
2023-05-16T15:31:18.385Z,14.30
2023-05-16T15:34:22.948Z,14.30
2023-05-16T15:37:26.399Z,14.20
2023-05-16T15:40:29.894Z,14.10
2023-05-16T15:43:33.269Z,14.00
2023-05-16T15:46:36.567Z,13.90
2023-05-16T15:49:41.601Z,13.80
2023-05-16T15:52:44.892Z,13.80
2023-05-16T15:55:48.713Z,13.70
2023-05-16T15:58:51.906Z,13.70
2023-05-16T16:01:55.112Z,13.60
2023-05-16T16:04:59.698Z,13.70
2023-05-16T16:08:02.967Z,13.60
2023-05-16T16:11:06.275Z,13.60
2023-05-16T16:14:11.248Z,13.60
2023-05-16T16:17:16.578Z,13.60
2023-05-16T16:20:21.257Z,13.60
2023-05-16T16:23:24.413Z,13.60
2023-05-16T16:26:27.644Z,13.60
2023-05-16T16:29:30.933Z,13.60
2023-05-16T16:32:34.108Z,13.50
2023-05-16T16:35:38.679Z,13.40
2023-05-16T16:38:41.887Z,13.40
2023-05-16T16:41:45.102Z,13.30
2023-05-16T16:44:49.098Z,13.30
2023-05-16T16:47:52.642Z,13.20
2023-05-16T16:50:57.509Z,13.10
2023-05-16T16:54:00.642Z,13.10
2023-05-16T16:57:03.919Z,13.00
2023-05-16T17:00:08.940Z,12.90
2023-05-16T17:03:12.222Z,12.90
2023-05-16T17:06:16.752Z,12.90
2023-05-16T17:09:20.345Z,12.90
2023-05-16T17:12:23.551Z,12.80
2023-05-16T17:15:29.055Z,12.80
2023-05-16T17:18:34.806Z,12.80
2023-05-16T17:21:41.219Z,12.80
2023-05-16T17:24:45.604Z,12.80
2023-05-16T17:27:48.987Z,12.70
2023-05-16T17:30:52.121Z,12.80
2023-05-16T17:33:55.705Z,12.80
2023-05-16T17:37:00.625Z,12.80
2023-05-16T17:40:05.941Z,12.80
2023-05-16T17:43:09.434Z,12.80
2023-05-16T17:46:12.849Z,12.70
2023-05-16T17:49:16.149Z,12.70
2023-05-16T17:52:22.218Z,12.70
2023-05-16T17:55:25.619Z,12.60
2023-05-16T17:58:29.437Z,12.60
2023-05-16T18:01:33.188Z,12.60
2023-05-16T18:04:37.386Z,12.70
2023-05-16T18:07:42.113Z,12.70
2023-05-16T18:10:52.091Z,12.70
2023-05-16T18:13:55.672Z,12.60
2023-05-16T18:16:58.869Z,12.60
2023-05-16T18:20:09.051Z,12.60
2023-05-16T18:23:14.447Z,12.50
2023-05-16T18:26:22.330Z,12.40
2023-05-16T18:29:27.504Z,12.40
2023-05-16T18:32:31.983Z,12.40
2023-05-16T18:35:35.284Z,12.40
2023-05-16T18:38:39.872Z,12.40
2023-05-16T18:41:46.961Z,12.30
2023-05-16T18:44:51.315Z,12.30
2023-05-16T18:47:55.464Z,12.30
2023-05-16T18:50:59.158Z,12.30
2023-05-16T18:54:04.082Z,12.30
2023-05-16T18:57:08.749Z,12.30
2023-05-16T19:00:16.825Z,12.30
2023-05-16T19:03:22.127Z,12.30
2023-05-16T19:06:25.942Z,12.30
2023-05-16T19:09:32.237Z,12.30
2023-05-16T19:12:38.213Z,12.20
2023-05-16T19:15:41.564Z,12.30
2023-05-16T19:18:45.575Z,12.30
2023-05-16T19:21:49.078Z,12.40
2023-05-16T19:24:53.671Z,12.40
2023-05-16T19:27:57.895Z,12.50
2023-05-16T19:31:01.935Z,12.50
2023-05-16T19:34:05.344Z,12.60
2023-05-16T19:37:08.946Z,12.60
2023-05-16T19:40:17.064Z,12.60
2023-05-16T19:43:20.816Z,12.50
2023-05-16T19:46:24.349Z,12.50
2023-05-16T19:49:28.750Z,12.40
2023-05-16T19:52:32.125Z,12.40
2023-05-16T19:55:38.301Z,12.40
2023-05-16T19:58:43.877Z,12.30
2023-05-16T20:01:47.118Z,12.30
2023-05-16T20:04:50.634Z,12.30
2023-05-16T20:07:54.620Z,12.40
2023-05-16T20:10:59.226Z,12.30
2023-05-16T20:14:02.451Z,12.30
2023-05-16T20:17:05.990Z,12.40
2023-05-16T20:20:10.470Z,12.40
2023-05-16T20:23:13.611Z,12.40
2023-05-16T20:26:18.183Z,12.50
2023-05-16T20:29:21.420Z,12.50
2023-05-16T20:32:24.583Z,12.50
2023-05-16T20:35:27.830Z,12.50
2023-05-16T20:38:31.272Z,12.50
2023-05-16T20:41:35.921Z,12.50
2023-05-16T20:44:39.145Z,12.50
2023-05-16T20:47:42.416Z,12.60
2023-05-16T20:50:45.836Z,12.60
2023-05-16T20:53:48.988Z,12.60
2023-05-16T20:56:53.668Z,12.60
2023-05-16T20:59:56.870Z,12.50
2023-05-16T21:03:00.222Z,12.60
2023-05-16T21:06:03.753Z,12.60
2023-05-16T21:09:07.634Z,12.60
2023-05-16T21:12:12.166Z,12.70
2023-05-16T21:15:15.296Z,12.70
2023-05-16T21:18:18.492Z,12.70
2023-05-16T21:21:21.755Z,12.70
2023-05-16T21:24:24.958Z,12.70
2023-05-16T21:27:29.508Z,12.70
2023-05-16T21:30:32.632Z,12.80
2023-05-16T21:33:35.803Z,12.70
2023-05-16T21:36:39.011Z,12.80
2023-05-16T21:39:42.270Z,12.70
2023-05-16T21:42:46.721Z,12.80
2023-05-16T21:45:49.864Z,12.70
2023-05-16T21:48:53.032Z,12.70
2023-05-16T21:51:56.341Z,12.80
2023-05-16T21:54:59.511Z,12.70
2023-05-16T21:58:04.008Z,12.80
2023-05-16T22:01:07.550Z,12.80
2023-05-16T22:04:10.824Z,12.90
2023-05-16T22:07:14.083Z,12.90
2023-05-16T22:10:18.659Z,13.00
2023-05-16T22:13:23.246Z,13.00
2023-05-16T22:16:26.487Z,13.10
2023-05-16T22:19:29.652Z,13.20
2023-05-16T22:22:33.161Z,13.20
2023-05-16T22:25:36.380Z,13.30
2023-05-16T22:28:40.863Z,13.30
2023-05-16T22:31:44.065Z,13.30
2023-05-16T22:34:47.268Z,13.30
2023-05-16T22:37:50.433Z,13.30
2023-05-16T22:40:53.678Z,13.40
2023-05-16T22:43:58.434Z,13.30
2023-05-16T22:47:01.616Z,13.30
2023-05-16T22:50:05.199Z,13.30
2023-05-16T22:53:08.409Z,13.40
2023-05-16T22:56:11.667Z,13.40
2023-05-16T22:59:16.356Z,13.50
2023-05-16T23:02:20.857Z,13.50
2023-05-16T23:05:24.017Z,13.40
2023-05-16T23:08:27.168Z,13.50
2023-05-16T23:11:32.746Z,13.50
2023-05-16T23:14:37.301Z,13.50
2023-05-16T23:17:40.835Z,13.50
2023-05-16T23:20:44.106Z,13.50
2023-05-16T23:23:47.231Z,13.40
2023-05-16T23:26:50.432Z,13.40
2023-05-16T23:29:54.916Z,13.50
2023-05-16T23:32:58.181Z,13.40
2023-05-16T23:36:01.285Z,13.50
2023-05-16T23:39:04.569Z,13.40
2023-05-16T23:42:07.817Z,13.40
2023-05-16T23:45:12.968Z,13.50
2023-05-16T23:48:16.604Z,13.50
2023-05-16T23:51:19.774Z,13.50
2023-05-16T23:54:23.014Z,13.50
2023-05-16T23:57:26.108Z,13.50
